Terminal Aerodrome Forecast
Issued by NWS Atlanta, GA

Home | Current Version | Previous Version | Text Only | Print | Product List | Glossary On
Versions: 1 2 3 4 5 6 7 8 9 10 11 12 13 14 15 16 17 18 19 20 21 22 23 24
869
FTUS42 KFFC 180544
TAFCSG
TAF
KCSG 180544Z 1806/1906 16004KT P6SM SCT200
     FM181400 17007KT P6SM FEW040 SCT150
     FM181700 19010G16KT P6SM BKN050
     FM182100 18011G18KT P6SM SCT060 BKN150
     FM190400 17012G20KT P6SM VCSH SCT015 BKN035=

USA.gov is the U.S. government's official web portal to all federal, state and local government web resources and services.